Time;durP1;ratioP1;P1;durP2;ratioP2;P2;SDS_P1;SDS_P2;PMS_P1;PMS_P2;Temp;Humidity;BMP_temperature;BMP_pressure;BME280_temperature;BME280_humidity;BME280_pressure;Samples;Min_cycle;Max_cycle;Signal;HPM_P1;HPM_P2
2021/07/22 00:00:59;;;;;;;;;;;;;;;19.77;55.24;94953.00;2953775;40;20043;-77
2021/07/22 00:03:00;;;;;;;;;;;;;;;19.73;55.36;94953.63;2962542;40;19960;-77
2021/07/22 00:05:05;;;;;;;;;;;;;;;19.68;55.70;94946.25;2962772;39;20313;-79
2021/07/22 00:07:06;;;;;;;;;;;;;;;19.74;55.41;94940.09;2963297;40;19939;-80
2021/07/22 00:09:08;;;;;;;;;;;;;;;19.68;55.61;94940.94;2964757;40;19964;-78
2021/07/22 00:11:09;;;;;;;;;;;;;;;19.70;55.47;94933.56;2969752;40;19944;-78
2021/07/22 00:13:11;;;;;;;;;;;;;;;19.74;55.43;94941.94;2967887;40;19933;-79
2021/07/22 00:15:12;;;;;;;;;;;;;;;19.77;55.55;94939.69;2967093;40;20017;-78
2021/07/22 00:17:14;;;;;;;;;;;;;;;19.79;55.41;94936.84;2968616;40;20030;-78
2021/07/22 00:19:17;;;;;;;;;;;;;;;19.75;55.47;94936.44;2969038;40;19952;-78
2021/07/22 00:21:18;;;;;;;;;;;;;;;19.70;55.54;94928.25;2958493;40;19941;-67
2021/07/22 00:23:20;;;;;;;;;;;;;;;19.64;55.83;94923.78;2968152;40;19940;-67
2021/07/22 00:25:21;;;;;;;;;;;;;;;19.63;55.83;94928.25;2964888;40;19970;-67
2021/07/22 00:27:23;;;;;;;;;;;;;;;19.56;56.07;94924.00;2969028;40;20022;-68
2021/07/22 00:29:29;;;;;;;;;;;;;;;19.56;56.16;94916.03;2969383;40;20324;-78
2021/07/22 00:31:31;;;;;;;;;;;;;;;19.62;56.05;94923.97;2971775;40;19986;-77
2021/07/22 00:33:33;;;;;;;;;;;;;;;19.66;55.80;94924.38;2959719;40;19949;-79
2021/07/22 00:35:34;;;;;;;;;;;;;;;19.69;55.78;94921.28;2966882;40;20021;-77
2021/07/22 00:37:36;;;;;;;;;;;;;;;19.69;55.79;94920.47;2956510;40;20026;-67
2021/07/22 00:39:37;;;;;;;;;;;;;;;19.67;55.92;94922.53;2966925;40;20009;-68
2021/07/22 00:41:39;;;;;;;;;;;;;;;19.61;55.94;94921.50;2967205;40;19952;-68
2021/07/22 00:43:41;;;;;;;;;;;;;;;19.57;56.09;94920.28;2967953;40;19947;-67
2021/07/22 00:45:42;;;;;;;;;;;;;;;19.62;56.01;94915.19;2966099;40;20362;-68
2021/07/22 00:47:44;;;;;;;;;;;;;;;19.69;55.72;94920.47;2967115;40;19944;-68
2021/07/22 00:49:49;;;;;;;;;;;;;;;19.67;55.83;94912.72;2966298;40;19991;-68
2021/07/22 00:51:51;;;;;;;;;;;;;;;19.65;55.74;94915.56;2969963;40;19939;-68
2021/07/22 00:53:52;;;;;;;;;;;;;;;19.70;55.78;94917.63;2958200;40;19948;-68
2021/07/22 00:55:54;;;;;;;;;;;;;;;19.69;55.79;94912.50;2967059;40;20383;-67
2021/07/22 00:57:56;;;;;;;;;;;;;;;19.71;55.69;94918.47;2966789;40;20288;-68
2021/07/22 00:59:57;;;;;;;;;;;;;;;19.73;55.54;94919.06;2974434;40;19936;-68
2021/07/22 01:01:59;;;;;;;;;;;;;;;19.73;55.60;94922.53;2963512;40;19990;-67
2021/07/22 01:04:00;;;;;;;;;;;;;;;19.72;55.80;94915.56;2961957;40;19977;-78
2021/07/22 01:06:02;;;;;;;;;;;;;;;19.73;55.68;94914.56;2973019;40;20466;-68
2021/07/22 01:08:04;;;;;;;;;;;;;;;19.76;55.62;94911.47;2964568;40;20359;-68
2021/07/22 01:10:05;;;;;;;;;;;;;;;19.78;55.58;94914.72;2966648;40;20289;-68
2021/07/22 01:12:07;;;;;;;;;;;;;;;19.74;55.43;94916.19;2966877;40;20306;-68
2021/07/22 01:14:08;;;;;;;;;;;;;;;19.69;55.59;94915.97;2966694;40;20327;-68
2021/07/22 01:16:10;;;;;;;;;;;;;;;19.61;55.88;94909.03;2971689;40;19936;-68
2021/07/22 01:18:12;;;;;;;;;;;;;;;19.55;56.14;94920.53;2966399;40;19932;-67
2021/07/22 01:20:13;;;;;;;;;;;;;;;19.56;56.10;94911.50;2965362;40;19948;-69
2021/07/22 01:22:15;;;;;;;;;;;;;;;19.47;56.24;94922.56;2958161;40;19964;-68
2021/07/22 01:24:17;;;;;;;;;;;;;;;19.49;56.19;94924.00;2969421;40;19952;-68
2021/07/22 01:26:18;;;;;;;;;;;;;;;19.45;56.30;94930.78;2969255;40;19940;-67
2021/07/22 01:28:20;;;;;;;;;;;;;;;19.43;56.25;94923.00;2965783;40;20112;-68
2021/07/22 01:30:21;;;;;;;;;;;;;;;19.48;56.30;94924.22;2968939;40;19953;-80
2021/07/22 01:32:23;;;;;;;;;;;;;;;19.48;56.36;94924.22;2967072;40;19951;-81
2021/07/22 01:34:24;;;;;;;;;;;;;;;19.52;56.38;94915.63;2967459;40;19955;-79
2021/07/22 01:36:26;;;;;;;;;;;;;;;19.56;56.02;94927.47;2969245;40;19936;-77
2021/07/22 01:38:27;;;;;;;;;;;;;;;19.57;56.03;94925.63;2967700;40;19948;-75
2021/07/22 01:40:29;;;;;;;;;;;;;;;19.55;56.17;94925.84;2969956;40;19996;-78
2021/07/22 01:42:31;;;;;;;;;;;;;;;19.58;56.05;94925.41;2968982;40;20440;-76
2021/07/22 01:44:33;;;;;;;;;;;;;;;19.57;56.29;94928.28;2974506;40;19977;-78
2021/07/22 01:46:34;;;;;;;;;;;;;;;19.64;56.11;94918.47;2967798;40;20373;-78
2021/07/22 01:48:36;;;;;;;;;;;;;;;19.60;55.99;94920.69;2968577;40;19936;-78
2021/07/22 01:50:38;;;;;;;;;;;;;;;19.61;56.13;94929.47;2967701;40;19947;-68
2021/07/22 01:52:39;;;;;;;;;;;;;;;19.66;56.00;94927.03;2967499;40;19952;-68
2021/07/22 01:54:41;;;;;;;;;;;;;;;19.64;56.06;94926.44;2957414;40;19996;-68
2021/07/22 01:56:42;;;;;;;;;;;;;;;19.68;55.89;94929.47;2960518;40;20028;-68
2021/07/22 01:58:44;;;;;;;;;;;;;;;19.70;55.94;94922.94;2966560;40;19932;-68
2021/07/22 02:00:46;;;;;;;;;;;;;;;19.71;55.82;94929.09;2963730;40;20206;-68
2021/07/22 02:02:47;;;;;;;;;;;;;;;19.64;56.04;94927.22;2959149;40;19944;-68
2021/07/22 02:04:49;;;;;;;;;;;;;;;19.63;56.11;94920.28;2965326;40;19991;-68
2021/07/22 02:06:51;;;;;;;;;;;;;;;19.62;56.13;94916.00;2958122;40;20288;-69
2021/07/22 02:08:52;;;;;;;;;;;;;;;19.54;56.30;94921.53;2965416;40;19937;-68
2021/07/22 02:10:54;;;;;;;;;;;;;;;19.61;56.19;94919.66;2965708;40;20040;-67
2021/07/22 02:12:55;;;;;;;;;;;;;;;19.63;56.23;94922.94;2967079;40;19944;-69
2021/07/22 02:14:57;;;;;;;;;;;;;;;19.68;56.08;94918.84;2965737;40;19960;-68
2021/07/22 02:16:58;;;;;;;;;;;;;;;19.71;56.08;94926.44;2969892;40;20039;-66
2021/07/22 02:19:00;;;;;;;;;;;;;;;19.69;56.02;94923.94;2972159;40;20031;-68
2021/07/22 02:21:05;;;;;;;;;;;;;;;19.64;56.08;94918.47;2970744;40;20061;-69
2021/07/22 02:23:07;;;;;;;;;;;;;;;19.61;56.37;94924.97;2960665;40;19944;-68
2021/07/22 02:25:09;;;;;;;;;;;;;;;19.62;56.44;94926.63;2966946;40;20384;-67
2021/07/22 02:27:10;;;;;;;;;;;;;;;19.63;56.44;94922.13;2972400;40;20178;-68
2021/07/22 02:29:12;;;;;;;;;;;;;;;19.61;56.29;94914.34;2959256;40;19963;-68
2021/07/22 02:31:14;;;;;;;;;;;;;;;19.64;56.34;94921.91;2962782;40;19968;-68
2021/07/22 02:33:16;;;;;;;;;;;;;;;19.65;56.35;94925.38;2969576;40;20339;-69
2021/07/22 02:35:17;;;;;;;;;;;;;;;19.50;56.63;94928.28;2960146;40;19944;-79
2021/07/22 02:37:19;;;;;;;;;;;;;;;19.47;56.72;94918.09;2966933;40;19940;-79
2021/07/22 02:39:21;;;;;;;;;;;;;;;19.49;56.94;94926.66;2968737;40;19940;-78
2021/07/22 02:41:23;;;;;;;;;;;;;;;19.44;56.91;94929.13;2966881;40;20232;-77
2021/07/22 02:43:24;;;;;;;;;;;;;;;19.43;57.10;94930.16;2967030;40;20128;-78
2021/07/22 02:45:26;;;;;;;;;;;;;;;19.44;57.01;94929.97;2968190;40;19994;-79
2021/07/22 02:47:28;;;;;;;;;;;;;;;19.40;57.13;94933.22;2969614;40;20179;-79
2021/07/22 02:49:30;;;;;;;;;;;;;;;19.37;57.45;94933.66;2966996;40;20175;-78
2021/07/22 02:51:31;;;;;;;;;;;;;;;19.36;57.23;94937.31;2959680;40;19936;-78
2021/07/22 02:53:36;;;;;;;;;;;;;;;19.27;57.60;94926.09;2967426;40;19979;-79
2021/07/22 02:55:37;;;;;;;;;;;;;;;19.26;57.49;94929.78;2960979;40;19935;-80
2021/07/22 02:57:39;;;;;;;;;;;;;;;19.22;57.54;94931.22;2966114;40;20303;-78
2021/07/22 02:59:41;;;;;;;;;;;;;;;19.28;57.66;94934.91;2969836;40;20044;-78
2021/07/22 03:01:42;;;;;;;;;;;;;;;19.18;58.05;94941.44;2965766;40;19992;-78
2021/07/22 03:03:44;;;;;;;;;;;;;;;19.22;57.81;94940.00;2965323;40;20007;-78
2021/07/22 03:05:46;;;;;;;;;;;;;;;19.31;57.46;94940.59;2967024;40;19932;-77
2021/07/22 03:07:47;;;;;;;;;;;;;;;19.31;57.69;94931.81;2968918;40;19935;-79
2021/07/22 03:09:49;;;;;;;;;;;;;;;19.34;57.61;94934.06;2966485;40;19944;-78
2021/07/22 03:11:51;;;;;;;;;;;;;;;19.31;57.59;94937.94;2970827;40;20274;-78
2021/07/22 03:13:52;;;;;;;;;;;;;;;19.33;57.48;94937.72;2963266;40;20366;-77
2021/07/22 03:15:54;;;;;;;;;;;;;;;19.25;57.82;94941.41;2971005;40;19977;-79
2021/07/22 03:17:56;;;;;;;;;;;;;;;19.22;57.80;94945.31;2968148;40;20305;-78
2021/07/22 03:19:57;;;;;;;;;;;;;;;19.20;58.12;94944.69;2972135;40;20244;-77
2021/07/22 03:21:59;;;;;;;;;;;;;;;19.30;57.84;94935.50;2967265;40;20058;-77
2021/07/22 03:24:01;;;;;;;;;;;;;;;19.30;57.85;94933.66;2952118;40;19948;-79
2021/07/22 03:26:03;;;;;;;;;;;;;;;19.32;57.86;94936.94;2960179;40;19996;-80
2021/07/22 03:28:05;;;;;;;;;;;;;;;19.26;57.82;94939.59;2959035;40;20027;-78
2021/07/22 03:30:07;;;;;;;;;;;;;;;19.29;57.97;94937.31;2965726;40;20281;-77
2021/07/22 03:32:08;;;;;;;;;;;;;;;19.40;57.83;94938.53;2968939;40;19940;-78
2021/07/22 03:34:10;;;;;;;;;;;;;;;19.33;57.93;94930.56;2968148;40;19977;-78
2021/07/22 03:36:11;;;;;;;;;;;;;;;19.25;58.24;94928.13;2955400;40;20322;-79
2021/07/22 03:38:13;;;;;;;;;;;;;;;19.18;58.53;94941.44;2967193;40;19946;-78
2021/07/22 03:40:15;;;;;;;;;;;;;;;19.13;58.64;94935.13;2966988;39;19998;-79
2021/07/22 03:42:16;;;;;;;;;;;;;;;19.12;59.03;94936.97;2967748;40;19948;-78
2021/07/22 03:44:18;;;;;;;;;;;;;;;19.12;58.94;94928.16;2964881;40;19948;-78
2021/07/22 03:46:20;;;;;;;;;;;;;;;19.12;58.66;94930.81;2961088;40;19936;-77
2021/07/22 03:48:21;;;;;;;;;;;;;;;19.12;59.16;94925.50;2971728;40;20238;-78
2021/07/22 03:50:23;;;;;;;;;;;;;;;19.08;58.93;94933.09;2969269;40;19940;-79
2021/07/22 03:52:24;;;;;;;;;;;;;;;19.08;59.11;94934.91;2972860;40;19965;-79
2021/07/22 03:54:26;;;;;;;;;;;;;;;19.12;59.08;94934.31;2960079;40;19985;-77
2021/07/22 03:56:27;;;;;;;;;;;;;;;19.18;58.98;94930.81;2967209;40;19939;-77
2021/07/22 03:58:29;;;;;;;;;;;;;;;19.17;59.09;94937.16;2968122;40;20048;-79
2021/07/22 04:00:31;;;;;;;;;;;;;;;19.17;59.12;94934.50;2966815;40;19997;-78
2021/07/22 04:02:33;;;;;;;;;;;;;;;19.11;59.22;94940.63;2967297;40;19993;-79
2021/07/22 04:04:34;;;;;;;;;;;;;;;19.18;59.17;94940.63;2961526;40;19941;-79
2021/07/22 04:06:36;;;;;;;;;;;;;;;19.19;59.09;94940.41;2966416;40;20242;-79
2021/07/22 04:08:38;;;;;;;;;;;;;;;19.07;59.40;94941.25;2961098;40;19937;-78
2021/07/22 04:10:39;;;;;;;;;;;;;;;19.05;59.44;94951.25;2966241;40;19996;-79
2021/07/22 04:12:41;;;;;;;;;;;;;;;19.02;59.69;94961.25;2967886;40;20041;-80
2021/07/22 04:14:43;;;;;;;;;;;;;;;19.15;59.37;94957.78;2967679;40;19940;-79
2021/07/22 04:16:45;;;;;;;;;;;;;;;19.21;59.20;94956.97;2967539;40;19941;-80
2021/07/22 04:18:46;;;;;;;;;;;;;;;19.16;59.37;94958.59;2965830;40;20022;-78
2021/07/22 04:20:48;;;;;;;;;;;;;;;19.18;59.22;94969.81;2965742;40;20041;-80
2021/07/22 04:22:50;;;;;;;;;;;;;;;19.20;59.26;94965.94;2971647;40;20331;-79
2021/07/22 04:24:52;;;;;;;;;;;;;;;19.13;59.39;94962.47;2967258;40;19928;-80
2021/07/22 04:26:53;;;;;;;;;;;;;;;19.26;59.22;94963.50;2968557;40;20011;-79
2021/07/22 04:28:55;;;;;;;;;;;;;;;19.24;59.25;94964.50;2966706;40;19940;-69
2021/07/22 04:30:57;;;;;;;;;;;;;;;19.29;59.09;94958.56;2962406;40;20270;-67
2021/07/22 04:32:58;;;;;;;;;;;;;;;19.32;58.94;94966.16;2966647;40;20245;-80
2021/07/22 04:35:01;;;;;;;;;;;;;;;19.15;59.40;94963.09;2968586;40;19948;-79
2021/07/22 04:37:03;;;;;;;;;;;;;;;19.15;59.37;94965.75;2971609;40;19928;-78
2021/07/22 04:39:05;;;;;;;;;;;;;;;19.17;59.48;94958.41;2968424;40;20083;-79
2021/07/22 04:41:06;;;;;;;;;;;;;;;19.29;59.27;94963.06;2967844;40;19944;-78
2021/07/22 04:43:09;;;;;;;;;;;;;;;19.29;59.03;94958.56;2967262;40;20016;-79
2021/07/22 04:45:11;;;;;;;;;;;;;;;19.32;59.14;94966.16;2968974;40;19944;-80
2021/07/22 04:47:12;;;;;;;;;;;;;;;19.39;59.04;94966.94;2961214;40;19953;-79
2021/07/22 04:49:14;;;;;;;;;;;;;;;19.44;58.58;94966.31;2960704;40;19960;-80
2021/07/22 04:51:16;;;;;;;;;;;;;;;19.41;58.92;94966.75;2964948;40;20022;-79
2021/07/22 04:53:18;;;;;;;;;;;;;;;19.41;58.94;94972.06;2968133;40;19952;-78
2021/07/22 04:55:19;;;;;;;;;;;;;;;19.42;58.52;94963.03;2973762;40;19952;-79
2021/07/22 04:57:21;;;;;;;;;;;;;;;19.43;58.80;94970.00;2973554;40;19960;-79
2021/07/22 04:59:23;;;;;;;;;;;;;;;19.47;58.78;94965.91;2960432;40;20209;-79
2021/07/22 05:01:24;;;;;;;;;;;;;;;19.24;59.56;94967.16;2971904;40;19963;-79
2021/07/22 05:03:26;;;;;;;;;;;;;;;18.33;62.24;94965.03;2971134;40;19960;-78
2021/07/22 05:05:28;;;;;;;;;;;;;;;18.62;61.86;94965.69;2968654;40;19935;-78
2021/07/22 05:07:30;;;;;;;;;;;;;;;19.03;60.78;94967.38;2962780;40;19949;-78
2021/07/22 05:09:31;;;;;;;;;;;;;;;19.24;59.99;94967.16;2966979;40;19940;-68
2021/07/22 05:11:33;;;;;;;;;;;;;;;19.41;59.13;94964.09;2966338;40;19940;-67
2021/07/22 05:13:39;;;;;;;;;;;;;;;19.43;59.22;94970.00;2965098;40;19936;-69
2021/07/22 05:15:40;;;;;;;;;;;;;;;19.53;59.06;94967.75;2971503;40;20301;-67
2021/07/22 05:17:42;;;;;;;;;;;;;;;19.70;58.73;94964.66;2967150;40;19997;-68
2021/07/22 05:19:43;;;;;;;;;;;;;;;19.91;58.16;94966.22;2966092;40;20016;-68
2021/07/22 05:21:45;;;;;;;;;;;;;;;19.98;57.63;94965.19;2971607;40;20003;-68
2021/07/22 05:23:46;;;;;;;;;;;;;;;19.98;57.56;94967.84;2972187;40;20267;-68
2021/07/22 05:25:48;;;;;;;;;;;;;;;20.12;57.33;94963.28;2966529;40;20139;-68
2021/07/22 05:27:50;;;;;;;;;;;;;;;20.18;57.24;94964.28;2960891;40;20029;-68
2021/07/22 05:29:51;;;;;;;;;;;;;;;20.21;56.97;94961.19;2962345;40;19936;-69
2021/07/22 05:31:53;;;;;;;;;;;;;;;20.34;56.69;94963.75;2966285;40;19941;-69
2021/07/22 05:33:54;;;;;;;;;;;;;;;20.41;56.39;94961.06;2967190;40;19966;-69
2021/07/22 05:35:56;;;;;;;;;;;;;;;20.54;56.03;94971.66;2966309;40;20025;-69
2021/07/22 05:37:57;;;;;;;;;;;;;;;20.51;56.13;94968.59;2966723;40;19940;-68
2021/07/22 05:39:59;;;;;;;;;;;;;;;20.59;56.11;94966.53;2966090;40;19940;-69
2021/07/22 05:42:01;;;;;;;;;;;;;;;20.67;55.64;94968.09;2966422;40;20233;-69
2021/07/22 05:44:03;;;;;;;;;;;;;;;20.72;55.73;94967.47;2958063;40;19980;-68
2021/07/22 05:46:04;;;;;;;;;;;;;;;20.73;55.70;94977.88;2964101;40;20302;-69
2021/07/22 05:48:06;;;;;;;;;;;;;;;20.86;55.23;94974.31;2972276;40;19928;-78
2021/07/22 05:50:08;;;;;;;;;;;;;;;21.04;54.84;94968.25;2964827;40;19937;-78
2021/07/22 05:52:09;;;;;;;;;;;;;;;21.09;54.43;94979.06;2960170;40;19943;-80
2021/07/22 05:54:11;;;;;;;;;;;;;;;21.09;54.82;94972.94;2969395;40;20242;-81
2021/07/22 05:56:17;;;;;;;;;;;;;;;21.14;54.14;94976.53;2972910;40;20009;-81
2021/07/22 05:58:18;;;;;;;;;;;;;;;21.02;54.43;94976.47;2959811;40;20301;-68
2021/07/22 06:00:20;;;;;;;;;;;;;;;20.63;55.70;94978.38;2965830;40;19928;-68
2021/07/22 06:02:22;;;;;;;;;;;;;;;20.49;56.13;94978.63;2969257;40;20301;-69
2021/07/22 06:04:24;;;;;;;;;;;;;;;20.20;56.93;94970.19;2965707;39;19940;-70
2021/07/22 06:06:26;;;;;;;;;;;;;;;20.26;57.14;94977.31;2971351;40;19981;-68
2021/07/22 06:08:28;;;;;;;;;;;;;;;20.57;56.37;94978.38;2965859;40;19933;-69
2021/07/22 06:10:29;;;;;;;;;;;;;;;20.88;55.34;94980.25;2965111;40;20010;-69
2021/07/22 06:12:31;;;;;;;;;;;;;;;20.90;54.90;94980.03;2966061;40;20360;-69
2021/07/22 06:14:32;;;;;;;;;;;;;;;21.01;54.60;94976.66;2965725;40;19992;-70
2021/07/22 06:16:34;;;;;;;;;;;;;;;20.36;55.90;94983.00;2967184;40;20263;-69
2021/07/22 06:18:36;;;;;;;;;;;;;;;20.16;56.47;94980.44;2968175;40;19947;-69
2021/07/22 06:20:39;;;;;;;;;;;;;;;20.07;56.99;94981.72;2966277;40;20025;-68
2021/07/22 06:22:44;;;;;;;;;;;;;;;19.96;57.44;94990.31;2966981;40;19952;-70
2021/07/22 06:24:45;;;;;;;;;;;;;;;20.17;56.81;94990.03;2966217;40;20504;-69
2021/07/22 06:26:47;;;;;;;;;;;;;;;20.36;56.06;94983.00;2955173;40;19945;-70
2021/07/22 06:28:48;;;;;;;;;;;;;;;20.72;54.89;94983.44;2971600;40;20318;-69
2021/07/22 06:30:53;;;;;;;;;;;;;;;21.02;54.34;94975.66;2971368;40;19976;-70
2021/07/22 06:32:54;;;;;;;;;;;;;;;21.33;53.58;94984.59;2959028;40;19946;-70
2021/07/22 06:34:56;;;;;;;;;;;;;;;21.56;53.31;94982.16;2962385;40;20046;-69
2021/07/22 06:36:57;;;;;;;;;;;;;;;21.76;52.38;94981.94;2970785;40;19985;-68
2021/07/22 06:38:59;;;;;;;;;;;;;;;21.81;51.84;94984.78;2955706;40;21088;-68
2021/07/22 06:41:01;;;;;;;;;;;;;;;21.72;51.97;94988.75;2966801;40;20407;-68
2021/07/22 06:43:02;;;;;;;;;;;;;;;21.54;52.85;94986.09;2966886;40;19964;-68
2021/07/22 06:45:04;;;;;;;;;;;;;;;21.56;52.16;94981.34;2967779;40;19940;-69
2021/07/22 06:47:05;;;;;;;;;;;;;;;21.77;52.11;94982.75;2964848;40;20114;-67
2021/07/22 06:49:07;;;;;;;;;;;;;;;21.97;51.29;94980.69;2960751;40;19940;-69
2021/07/22 06:51:09;;;;;;;;;;;;;;;22.10;50.11;94985.06;2967062;40;19973;-69
2021/07/22 06:53:10;;;;;;;;;;;;;;;22.07;50.07;94975.66;2971750;40;20018;-67
2021/07/22 06:55:12;;;;;;;;;;;;;;;21.70;50.47;94985.50;2970835;40;19955;-67
2021/07/22 06:57:13;;;;;;;;;;;;;;;21.60;50.05;94986.00;2971976;40;20012;-70
2021/07/22 06:59:15;;;;;;;;;;;;;;;21.67;50.04;94981.41;2967520;40;19940;-69
2021/07/22 07:01:16;;;;;;;;;;;;;;;21.86;49.36;94979.56;2963116;40;19976;-71
2021/07/22 07:03:19;;;;;;;;;;;;;;;21.67;48.77;94986.75;2963525;40;19928;-70
2021/07/22 07:05:20;;;;;;;;;;;;;;;21.56;47.98;94979.50;2963745;40;20030;-70
2021/07/22 07:07:22;;;;;;;;;;;;;;;21.66;48.35;94969.13;2970543;40;20052;-70
2021/07/22 07:09:23;;;;;;;;;;;;;;;21.83;47.42;94971.19;2971697;40;20048;-70
2021/07/22 07:11:25;;;;;;;;;;;;;;;21.82;47.90;94972.25;2970937;40;20325;-70
2021/07/22 07:13:26;;;;;;;;;;;;;;;21.92;47.30;94971.72;2966490;40;20029;-69
2021/07/22 07:15:28;;;;;;;;;;;;;;;21.59;47.17;94970.22;2970753;40;19947;-68
2021/07/22 07:17:30;;;;;;;;;;;;;;;21.49;48.25;94970.75;2967615;40;19944;-68
2021/07/22 07:19:31;;;;;;;;;;;;;;;21.76;47.46;94962.47;2966823;40;19932;-71
2021/07/22 07:21:40;;;;;;;;;;;;;;;22.04;46.81;94965.41;2968134;40;20526;-69
2021/07/22 07:23:41;;;;;;;;;;;;;;;22.35;45.79;94970.81;2968282;40;20029;-68
2021/07/22 07:25:43;;;;;;;;;;;;;;;22.26;46.52;94957.78;2971727;40;20013;-68
2021/07/22 07:27:44;;;;;;;;;;;;;;;21.93;47.30;94955.50;2968293;40;20385;-68
2021/07/22 07:29:46;;;;;;;;;;;;;;;22.14;46.58;94956.06;2969862;40;19943;-68
2021/07/22 07:31:47;;;;;;;;;;;;;;;22.21;46.22;94959.47;2966242;40;20044;-69
2021/07/22 07:33:49;;;;;;;;;;;;;;;21.59;46.20;94971.03;2971572;40;19944;-70
2021/07/22 07:35:51;;;;;;;;;;;;;;;21.44;46.38;94965.25;2970916;40;20288;-70
2021/07/22 07:37:52;;;;;;;;;;;;;;;21.87;46.24;94951.03;2955396;40;19967;-69
2021/07/22 07:39:54;;;;;;;;;;;;;;;22.15;45.44;94950.50;2967755;40;19960;-69
2021/07/22 07:41:56;;;;;;;;;;;;;;;22.51;44.34;94948.81;2967778;40;19985;-68
2021/07/22 07:43:57;;;;;;;;;;;;;;;22.82;43.74;94952.25;2968288;40;19969;-69
2021/07/22 07:45:59;;;;;;;;;;;;;;;23.05;43.42;94955.00;2967079;40;20421;-68
2021/07/22 07:48:00;;;;;;;;;;;;;;;22.85;42.51;94949.97;2967471;40;20141;-70
2021/07/22 07:50:03;;;;;;;;;;;;;;;23.07;42.09;94944.09;2966385;40;19947;-70
2021/07/22 07:52:05;;;;;;;;;;;;;;;23.01;42.23;94945.81;2969173;40;19949;-67
2021/07/22 07:54:08;;;;;;;;;;;;;;;22.72;42.54;94955.50;2968026;40;20021;-68
2021/07/22 07:56:10;;;;;;;;;;;;;;;21.98;43.04;94954.81;2968921;40;20044;-69
2021/07/22 07:58:12;;;;;;;;;;;;;;;22.07;43.74;94948.16;2964271;40;19992;-70
2021/07/22 08:00:13;;;;;;;;;;;;;;;22.59;43.12;94951.19;2957828;40;20028;-71
2021/07/22 08:02:15;;;;;;;;;;;;;;;22.87;42.27;94947.06;2969391;40;19936;-68
2021/07/22 08:04:18;;;;;;;;;;;;;;;22.50;40.92;94955.22;2966667;40;19932;-68
2021/07/22 08:06:19;;;;;;;;;;;;;;;22.46;40.35;94951.38;2964547;40;20335;-69
2021/07/22 08:08:22;;;;;;;;;;;;;;;22.40;40.81;94947.75;2962166;40;19932;-68
2021/07/22 08:10:23;;;;;;;;;;;;;;;22.65;40.99;94944.09;2967972;40;20017;-68
2021/07/22 08:12:25;;;;;;;;;;;;;;;23.07;40.48;94939.56;2954673;40;19947;-70
2021/07/22 08:14:26;;;;;;;;;;;;;;;23.47;40.45;94949.56;2967734;40;20012;-69
2021/07/22 08:16:28;;;;;;;;;;;;;;;23.88;39.75;94953.16;2957300;40;19947;-68
2021/07/22 08:18:32;;;;;;;;;;;;;;;23.80;39.61;94956.19;2965401;40;20210;-67
2021/07/22 08:20:33;;;;;;;;;;;;;;;23.82;39.01;94947.94;2967571;40;20012;-70
2021/07/22 08:22:35;;;;;;;;;;;;;;;23.88;39.05;94952.34;2970900;40;20013;-69
2021/07/22 08:24:38;;;;;;;;;;;;;;;23.86;39.02;94954.44;2964356;40;19944;-70
2021/07/22 08:26:39;;;;;;;;;;;;;;;23.55;39.74;94961.75;2959919;40;20282;-68
2021/07/22 08:28:42;;;;;;;;;;;;;;;23.35;40.15;94954.09;2960395;40;19986;-70
2021/07/22 08:30:43;;;;;;;;;;;;;;;22.70;40.67;94960.25;2957979;40;20193;-69
2021/07/22 08:32:45;;;;;;;;;;;;;;;22.76;41.45;94963.84;2967060;40;19972;-68
2021/07/22 08:34:47;;;;;;;;;;;;;;;22.79;40.65;94966.09;2969868;40;20407;-69
2021/07/22 08:36:48;;;;;;;;;;;;;;;22.67;41.03;94966.03;2958851;40;20315;-71
2021/07/22 08:38:50;;;;;;;;;;;;;;;22.86;41.08;94962.25;2966468;40;19974;-70
2021/07/22 08:40:52;;;;;;;;;;;;;;;23.13;40.23;94966.41;2966257;40;19936;-70
2021/07/22 08:42:54;;;;;;;;;;;;;;;22.67;40.96;94968.72;2955280;40;19988;-68
2021/07/22 08:44:56;;;;;;;;;;;;;;;22.64;41.51;94970.00;2965941;40;20161;-70
2021/07/22 08:46:57;;;;;;;;;;;;;;;22.85;41.26;94962.50;2967560;40;20332;-69
2021/07/22 08:48:59;;;;;;;;;;;;;;;23.01;40.48;94961.84;2963723;40;20183;-69
2021/07/22 08:51:01;;;;;;;;;;;;;;;23.48;40.10;94961.06;2956596;40;19932;-69
2021/07/22 08:53:06;;;;;;;;;;;;;;;24.01;39.80;94953.94;2957977;40;19936;-70
2021/07/22 08:55:08;;;;;;;;;;;;;;;24.31;38.52;94962.56;2969289;40;19935;-81
2021/07/22 08:57:09;;;;;;;;;;;;;;;23.83;38.96;94960.25;2953022;40;20308;-82
2021/07/22 08:59:11;;;;;;;;;;;;;;;23.60;39.41;94961.91;2964218;40;19989;-82
2021/07/22 09:01:12;;;;;;;;;;;;;;;22.72;41.25;94963.53;2964236;40;20237;-82
2021/07/22 09:03:14;;;;;;;;;;;;;;;22.22;42.59;94961.09;2967421;40;20012;-81
2021/07/22 09:05:16;;;;;;;;;;;;;;;22.36;42.58;94965.25;2965782;40;19984;-81
2021/07/22 09:07:19;;;;;;;;;;;;;;;22.44;42.13;94954.25;2965318;40;20201;-80
2021/07/22 09:09:20;;;;;;;;;;;;;;;22.83;41.62;94959.25;2965437;40;20201;-80
2021/07/22 09:11:22;;;;;;;;;;;;;;;23.14;41.12;94952.81;2959115;40;19939;-81
2021/07/22 09:13:24;;;;;;;;;;;;;;;23.42;40.16;94949.44;2966906;40;19968;-81
2021/07/22 09:15:27;;;;;;;;;;;;;;;23.59;40.15;94952.22;2963381;40;19936;-79
2021/07/22 09:17:39;;;;;;;;;;;;;;;23.78;40.07;94946.78;2967191;40;19936;-81
2021/07/22 09:19:41;;;;;;;;;;;;;;;23.95;39.74;94941.50;2968799;40;19945;-80
2021/07/22 09:21:42;;;;;;;;;;;;;;;24.19;39.70;94944.94;2969901;40;19940;-81
2021/07/22 09:24:03;;;;;;;;;;;;;;;23.44;40.80;94951.88;2966389;40;19940;-80
2021/07/22 09:26:05;;;;;;;;;;;;;;;22.91;41.21;94956.25;2967491;40;20050;-68
2021/07/22 09:28:06;;;;;;;;;;;;;;;23.24;41.52;94941.56;2963812;40;20273;-69
2021/07/22 09:30:12;;;;;;;;;;;;;;;23.58;39.75;94947.13;2957069;40;20017;-67
2021/07/22 09:32:14;;;;;;;;;;;;;;;23.84;39.31;94940.50;2961128;40;20056;-70
2021/07/22 09:34:18;;;;;;;;;;;;;;;24.10;38.51;94944.50;2960559;40;20027;-68
2021/07/22 09:36:19;;;;;;;;;;;;;;;23.94;38.77;94945.22;2964311;40;19952;-68
2021/07/22 09:38:21;;;;;;;;;;;;;;;24.10;39.73;94947.97;2966175;40;20210;-68
2021/07/22 09:40:26;;;;;;;;;;;;;;;23.54;39.78;94935.28;2956748;40;20271;-69
2021/07/22 09:42:38;;;;;;;;;;;;;;;23.31;40.22;94932.34;2966967;40;19964;-70
2021/07/22 09:44:40;;;;;;;;;;;;;;;23.39;40.01;94946.44;2965655;40;20285;-69
2021/07/22 09:46:41;;;;;;;;;;;;;;;23.03;40.29;94941.06;2965943;40;19936;-70
2021/07/22 09:49:01;;;;;;;;;;;;;;;23.01;41.17;94937.00;2966297;40;19985;-69
2021/07/22 09:51:03;;;;;;;;;;;;;;;22.84;42.18;94945.66;2965900;40;19940;-69
2021/07/22 09:53:08;;;;;;;;;;;;;;;22.99;41.69;94937.19;2957210;40;20418;-70
2021/07/22 09:55:29;;;;;;;;;;;;;;;23.09;42.11;94934.00;2957139;40;20132;-69
2021/07/22 09:57:31;;;;;;;;;;;;;;;23.22;41.49;94931.09;2966844;40;19973;-68
2021/07/22 09:59:32;;;;;;;;;;;;;;;23.56;41.35;94939.34;2956816;40;19943;-70
2021/07/22 10:01:44;;;;;;;;;;;;;;;23.71;40.69;94941.53;2972237;40;20001;-68
2021/07/22 10:03:46;;;;;;;;;;;;;;;23.31;41.67;94943.06;2966517;40;19936;-69
2021/07/22 10:06:05;;;;;;;;;;;;;;;23.16;41.42;94937.34;2970649;40;19940;-71
2021/07/22 10:08:07;;;;;;;;;;;;;;;23.13;41.13;94939.69;2959350;40;20027;-71
2021/07/22 10:10:09;;;;;;;;;;;;;;;23.29;40.71;94929.09;2965596;40;20013;-70
2021/07/22 10:12:11;;;;;;;;;;;;;;;23.35;40.46;94926.56;2950874;40;19980;-71
2021/07/22 10:14:14;;;;;;;;;;;;;;;23.71;39.76;94923.63;2961144;40;20024;-70
2021/07/22 10:16:17;;;;;;;;;;;;;;;24.04;38.25;94924.84;2968232;40;20233;-70
2021/07/22 10:18:23;;;;;;;;;;;;;;;24.36;37.30;94927.06;2966763;40;19975;-70
2021/07/22 10:20:27;;;;;;;;;;;;;;;24.15;38.39;94931.19;2956855;40;19948;-69
2021/07/22 10:22:29;;;;;;;;;;;;;;;24.17;37.46;94928.28;2963998;40;19936;-70
2021/07/22 10:24:30;;;;;;;;;;;;;;;24.08;38.17;94920.63;2962982;40;19936;-71
2021/07/22 10:26:39;;;;;;;;;;;;;;;23.60;38.44;94924.44;2961205;40;19976;-70
2021/07/22 10:28:41;;;;;;;;;;;;;;;23.59;38.59;94928.16;2966553;40;19944;-68
2021/07/22 10:30:42;;;;;;;;;;;;;;;24.09;37.83;94929.47;2957820;40;19960;-68
2021/07/22 10:33:00;;;;;;;;;;;;;;;23.83;38.51;94933.50;2964313;40;19944;-69
2021/07/22 10:35:02;;;;;;;;;;;;;;;24.07;38.61;94919.03;2962626;40;19952;-68
2021/07/22 10:37:03;;;;;;;;;;;;;;;24.52;36.92;94915.59;2956698;40;19929;-68